Time;durP1;ratioP1;P1;durP2;ratioP2;P2;SDS_P1;SDS_P2;PMS_P1;PMS_P2;Temp;Humidity;BMP_temperature;BMP_pressure;BME280_temperature;BME280_humidity;BME280_pressure;Samples;Min_cycle;Max_cycle;Signal;HPM_P1;HPM_P2
2021/10/20 00:00:14;;;;;;;3.43;2.70;;;;;;;;;;5030672;28;20081;-41
2021/10/20 00:02:41;;;;;;;2.90;2.58;;;;;;;;;;5023327;28;20025;-40
2021/10/20 00:05:07;;;;;;;3.17;2.55;;;;;;;;;;5027268;28;20032;-39
2021/10/20 00:07:32;;;;;;;3.43;2.90;;;;;;;;;;5029569;28;20029;-39
2021/10/20 00:09:57;;;;;;;3.00;2.80;;;;;;;;;;5022405;28;20056;-40
2021/10/20 00:12:23;;;;;;;2.77;2.57;;;;;;;;;;5011465;28;20045;-39
2021/10/20 00:14:48;;;;;;;3.20;2.90;;;;;;;;;;5016858;28;20032;-39
2021/10/20 00:17:13;;;;;;;2.90;2.70;;;;;;;;;;5029325;28;20117;-40
2021/10/20 00:19:40;;;;;;;4.23;3.10;;;;;;;;;;5025838;28;20038;-40
2021/10/20 00:22:05;;;;;;;2.97;2.67;;;;;;;;;;4993801;28;20033;-40
2021/10/20 00:24:30;;;;;;;3.40;3.10;;;;;;;;;;5014162;28;20239;-41
2021/10/20 00:26:56;;;;;;;3.10;2.80;;;;;;;;;;5030248;28;20017;-40
2021/10/20 00:29:21;;;;;;;2.50;2.30;;;;;;;;;;5027723;28;20509;-40
2021/10/20 00:31:46;;;;;;;3.10;2.80;;;;;;;;;;5011115;28;20036;-39
2021/10/20 00:34:12;;;;;;;3.17;2.87;;;;;;;;;;5026972;28;20033;-39
2021/10/20 00:36:37;;;;;;;2.97;2.77;;;;;;;;;;5034603;28;20021;-41
2021/10/20 00:39:02;;;;;;;3.17;2.73;;;;;;;;;;5033065;28;20040;-40
2021/10/20 00:41:29;;;;;;;2.90;2.60;;;;;;;;;;5034677;28;20033;-40
2021/10/20 00:43:54;;;;;;;2.85;2.65;;;;;;;;;;5022562;28;20060;-40
2021/10/20 00:46:29;;;;;;;2.70;2.50;;;;;;;;;;5014851;28;20127;-40
2021/10/20 00:48:55;;;;;;;3.63;2.72;;;;;;;;;;5029097;28;20041;-39
2021/10/20 00:51:25;;;;;;;3.57;2.63;;;;;;;;;;5034555;28;20413;-39
2021/10/20 00:53:50;;;;;;;3.03;2.83;;;;;;;;;;5045176;28;20028;-39
2021/10/20 00:56:16;;;;;;;3.80;2.60;;;;;;;;;;5054268;28;20029;-40
2021/10/20 00:58:41;;;;;;;2.93;2.67;;;;;;;;;;5051354;28;20041;-41
2021/10/20 01:01:06;;;;;;;3.37;2.53;;;;;;;;;;5053865;28;20028;-40
2021/10/20 01:03:32;;;;;;;2.90;2.60;;;;;;;;;;5045674;28;20021;-40
2021/10/20 01:05:57;;;;;;;2.90;2.70;;;;;;;;;;5034095;28;20029;-40
2021/10/20 01:08:22;;;;;;;2.70;2.50;;;;;;;;;;5049350;28;20108;-40
2021/10/20 01:10:48;;;;;;;2.87;2.63;;;;;;;;;;5052342;28;20033;-41
2021/10/20 01:13:13;;;;;;;3.63;2.60;;;;;;;;;;5049939;28;20030;-40
2021/10/20 01:15:39;;;;;;;3.33;3.03;;;;;;;;;;5035710;28;20372;-40
2021/10/20 01:18:04;;;;;;;3.07;2.87;;;;;;;;;;5034012;28;20025;-41
2021/10/20 01:20:31;;;;;;;3.10;2.80;;;;;;;;;;5052193;28;20067;-41
2021/10/20 01:22:56;;;;;;;;;;;;;;;;;;5051292;28;20028;-42
2021/10/20 01:25:22;;;;;;;2.70;2.50;;;;;;;;;;5016187;28;19916;-41
2021/10/20 01:27:47;;;;;;;3.20;2.40;;;;;;;;;;5033660;28;20018;-42
2021/10/20 01:30:13;;;;;;;2.87;2.60;;;;;;;;;;5049296;28;20495;-43
2021/10/20 01:32:38;;;;;;;2.50;2.30;;;;;;;;;;5053558;28;20025;-41
2021/10/20 01:35:04;;;;;;;2.90;2.57;;;;;;;;;;5033828;28;20025;-42
2021/10/20 01:37:29;;;;;;;3.23;2.93;;;;;;;;;;5033495;28;20480;-41
2021/10/20 01:39:56;;;;;;;3.53;2.67;;;;;;;;;;5033689;28;20064;-41
2021/10/20 01:42:22;;;;;;;3.95;2.60;;;;;;;;;;5034485;28;20112;-42
2021/10/20 01:44:48;;;;;;;3.03;2.40;;;;;;;;;;5048911;28;20101;-42
2021/10/20 01:47:13;;;;;;;3.00;2.80;;;;;;;;;;5052364;28;20024;-43
2021/10/20 01:49:38;;;;;;;2.80;2.60;;;;;;;;;;5053193;28;20135;-42
2021/10/20 01:52:04;;;;;;;2.97;2.70;;;;;;;;;;5048273;28;20064;-42
2021/10/20 01:54:29;;;;;;;2.67;2.47;;;;;;;;;;5033551;28;20029;-41
2021/10/20 01:56:55;;;;;;;2.77;2.57;;;;;;;;;;5033119;28;20022;-43
2021/10/20 01:59:21;;;;;;;2.90;2.60;;;;;;;;;;5033138;28;20025;-41
2021/10/20 02:01:46;;;;;;;2.70;2.45;;;;;;;;;;5035852;28;20040;-41
2021/10/20 02:04:12;;;;;;;3.13;2.83;;;;;;;;;;5040835;28;20076;-43
2021/10/20 02:06:41;;;;;;;3.67;2.63;;;;;;;;;;5033010;28;20499;-40
2021/10/20 02:09:07;;;;;;;3.20;2.90;;;;;;;;;;5015191;28;20030;-41
2021/10/20 02:11:32;;;;;;;2.97;2.37;;;;;;;;;;5014984;28;20047;-42
2021/10/20 02:13:58;;;;;;;2.50;2.30;;;;;;;;;;5030743;28;20103;-41
2021/10/20 02:16:23;;;;;;;3.17;2.63;;;;;;;;;;5033023;28;20105;-41
2021/10/20 02:18:48;;;;;;;2.97;2.50;;;;;;;;;;5032750;28;20036;-44
2021/10/20 02:21:15;;;;;;;2.60;2.40;;;;;;;;;;5032956;28;20553;-41
2021/10/20 02:23:40;;;;;;;2.63;2.38;;;;;;;;;;5034665;28;20514;-40
2021/10/20 02:26:06;;;;;;;3.13;2.80;;;;;;;;;;5052700;28;20036;-40
2021/10/20 02:28:31;;;;;;;3.00;2.47;;;;;;;;;;5053854;28;20033;-40
2021/10/20 02:30:57;;;;;;;3.03;2.80;;;;;;;;;;5054555;28;20483;-40
2021/10/20 02:33:22;;;;;;;2.90;2.70;;;;;;;;;;5050797;28;20028;-44
2021/10/20 02:35:48;;;;;;;3.53;2.37;;;;;;;;;;5052372;28;20487;-41
2021/10/20 02:38:13;;;;;;;3.00;2.73;;;;;;;;;;5052278;28;20040;-41
2021/10/20 02:40:38;;;;;;;2.97;2.67;;;;;;;;;;5052403;28;20479;-41
2021/10/20 02:43:04;;;;;;;2.50;2.30;;;;;;;;;;5045656;28;20040;-43
2021/10/20 02:45:29;;;;;;;2.77;2.50;;;;;;;;;;5051354;28;20116;-41
2021/10/20 02:47:54;;;;;;;2.70;2.50;;;;;;;;;;5038603;28;20381;-42
2021/10/20 02:50:21;;;;;;;2.70;2.50;;;;;;;;;;5032363;28;20515;-44
2021/10/20 02:52:46;;;;;;;3.58;2.90;;;;;;;;;;5015449;28;20037;-41
2021/10/20 02:55:11;;;;;;;2.80;2.53;;;;;;;;;;5040525;28;20396;-41
2021/10/20 02:57:37;;;;;;;2.80;2.60;;;;;;;;;;5051737;28;20059;-43
2021/10/20 03:00:03;;;;;;;2.60;2.40;;;;;;;;;;5052007;28;20028;-41
2021/10/20 03:02:28;;;;;;;3.77;2.50;;;;;;;;;;5031086;28;20037;-42
2021/10/20 03:04:53;;;;;;;3.17;2.93;;;;;;;;;;5032385;28;20140;-41
2021/10/20 03:07:19;;;;;;;2.73;2.53;;;;;;;;;;5031998;28;20495;-43
2021/10/20 03:09:44;;;;;;;2.80;2.60;;;;;;;;;;5031959;28;20025;-41
2021/10/20 03:12:09;;;;;;;2.97;2.67;;;;;;;;;;5031839;28;20025;-42
2021/10/20 03:14:35;;;;;;;2.83;2.60;;;;;;;;;;5033874;28;20479;-42
2021/10/20 03:17:00;;;;;;;2.50;2.30;;;;;;;;;;5031790;28;20033;-42
2021/10/20 03:19:25;;;;;;;3.10;2.77;;;;;;;;;;5031665;28;20065;-44
2021/10/20 03:21:51;;;;;;;2.80;2.60;;;;;;;;;;5031714;28;20034;-41
2021/10/20 03:24:16;;;;;;;2.40;2.20;;;;;;;;;;5048608;28;20032;-42
2021/10/20 03:26:41;;;;;;;2.80;2.60;;;;;;;;;;5051644;28;20406;-40
2021/10/20 03:29:07;;;;;;;3.03;2.73;;;;;;;;;;5051306;28;20029;-40
2021/10/20 03:31:32;;;;;;;2.40;2.17;;;;;;;;;;5051548;28;20028;-40
2021/10/20 03:33:58;;;;;;;2.67;2.47;;;;;;;;;;5049229;28;20081;-40
2021/10/20 03:36:23;;;;;;;3.00;2.47;;;;;;;;;;5051318;28;20101;-42
2021/10/20 03:38:48;;;;;;;3.60;2.53;;;;;;;;;;5051226;28;20033;-40
2021/10/20 03:41:14;;;;;;;3.13;2.60;;;;;;;;;;5026428;28;20040;-41
2021/10/20 03:43:39;;;;;;;2.60;2.40;;;;;;;;;;5033628;28;20120;-40
2021/10/20 03:46:05;;;;;;;2.77;2.20;;;;;;;;;;5033682;28;20091;-41
2021/10/20 03:48:30;;;;;;;2.90;2.70;;;;;;;;;;5044592;28;20491;-41
2021/10/20 03:50:55;;;;;;;2.67;2.47;;;;;;;;;;5051301;28;20048;-42
2021/10/20 03:53:21;;;;;;;2.97;2.60;;;;;;;;;;5022175;28;20120;-43
2021/10/20 03:55:46;;;;;;;3.30;3.00;;;;;;;;;;5031075;28;20118;-41
2021/10/20 03:58:11;;;;;;;2.37;2.17;;;;;;;;;;5033748;28;20087;-41
2021/10/20 04:00:37;;;;;;;2.83;2.53;;;;;;;;;;5031169;28;20029;-40
2021/10/20 04:03:02;;;;;;;3.13;2.60;;;;;;;;;;5032340;28;20034;-40
2021/10/20 04:05:27;;;;;;;2.60;2.40;;;;;;;;;;5030988;28;20029;-40
2021/10/20 04:07:53;;;;;;;3.17;2.90;;;;;;;;;;5031105;28;20021;-41
2021/10/20 04:10:20;;;;;;;2.70;2.50;;;;;;;;;;5033859;28;20028;-40
2021/10/20 04:12:45;;;;;;;;;;;;;;;;;;5045144;28;20120;-40
2021/10/20 04:15:11;;;;;;;2.87;2.67;;;;;;;;;;5037159;28;20012;-40
2021/10/20 04:17:38;;;;;;;3.40;2.95;;;;;;;;;;5043147;28;20045;-42
2021/10/20 04:20:05;;;;;;;2.83;2.42;;;;;;;;;;5017208;28;20084;-40
2021/10/20 04:22:30;;;;;;;3.22;2.47;;;;;;;;;;5035068;28;20029;-41
2021/10/20 04:24:55;;;;;;;2.60;2.40;;;;;;;;;;5034960;28;20492;-41
2021/10/20 04:27:21;;;;;;;2.80;2.40;;;;;;;;;;5043698;28;20494;-41
2021/10/20 04:29:46;;;;;;;3.33;3.03;;;;;;;;;;5054696;28;20396;-40
2021/10/20 04:32:11;;;;;;;2.57;2.37;;;;;;;;;;5054818;28;20027;-42
2021/10/20 04:34:37;;;;;;;2.67;2.47;;;;;;;;;;5054682;28;20021;-41
2021/10/20 04:37:02;;;;;;;2.57;2.37;;;;;;;;;;5047337;28;20034;-40
2021/10/20 04:39:27;;;;;;;4.70;3.33;;;;;;;;;;5016783;28;20149;-41
2021/10/20 04:41:53;;;;;;;2.60;2.40;;;;;;;;;;5034662;28;20037;-40
2021/10/20 04:44:18;;;;;;;3.07;2.17;;;;;;;;;;5035577;28;20065;-41
2021/10/20 04:46:43;;;;;;;2.97;2.77;;;;;;;;;;5038770;28;20059;-43
2021/10/20 04:49:09;;;;;;;2.60;2.40;;;;;;;;;;5054309;28;20049;-40
2021/10/20 04:51:34;;;;;;;2.40;2.20;;;;;;;;;;5054400;28;20028;-41
2021/10/20 04:53:59;;;;;;;4.03;2.53;;;;;;;;;;5054358;28;20043;-42
2021/10/20 04:56:25;;;;;;;2.73;2.53;;;;;;;;;;5052433;28;20047;-40
2021/10/20 04:58:50;;;;;;;2.97;2.60;;;;;;;;;;5055277;28;20037;-41
2021/10/20 05:01:15;;;;;;;2.83;2.53;;;;;;;;;;5056314;28;20029;-43
2021/10/20 05:03:41;;;;;;;3.47;2.37;;;;;;;;;;5054075;28;20373;-42
2021/10/20 05:06:06;;;;;;;3.37;2.50;;;;;;;;;;5054071;28;20429;-41
2021/10/20 05:08:31;;;;;;;3.80;2.40;;;;;;;;;;5052336;28;20021;-41
2021/10/20 05:10:57;;;;;;;2.83;2.63;;;;;;;;;;5054271;28;20085;-41
2021/10/20 05:13:23;;;;;;;2.53;2.33;;;;;;;;;;5054085;28;20021;-40
2021/10/20 05:15:48;;;;;;;2.60;2.27;;;;;;;;;;5053877;28;20024;-41
2021/10/20 05:18:14;;;;;;;2.60;2.40;;;;;;;;;;5052257;28;20043;-41
2021/10/20 05:20:39;;;;;;;2.70;2.50;;;;;;;;;;5052544;28;20032;-41
2021/10/20 05:23:04;;;;;;;2.60;2.33;;;;;;;;;;5047451;28;20030;-41
2021/10/20 05:25:30;;;;;;;2.77;2.50;;;;;;;;;;5033888;28;20029;-43
2021/10/20 05:27:55;;;;;;;2.30;2.17;;;;;;;;;;5034887;28;20111;-41
2021/10/20 05:30:21;;;;;;;2.50;2.30;;;;;;;;;;5033798;28;20137;-41
2021/10/20 05:32:46;;;;;;;2.73;2.50;;;;;;;;;;5033795;28;20483;-41
2021/10/20 05:35:18;;;;;;;2.80;2.60;;;;;;;;;;5015860;28;20034;-41
2021/10/20 05:37:43;;;;;;;2.70;2.22;;;;;;;;;;5034575;28;20025;-43
2021/10/20 05:40:09;;;;;;;2.60;2.40;;;;;;;;;;5033613;28;20029;-42
2021/10/20 05:42:34;;;;;;;3.13;2.33;;;;;;;;;;5035610;28;20479;-43
2021/10/20 05:45:00;;;;;;;2.90;2.43;;;;;;;;;;5053581;28;20032;-41
2021/10/20 05:47:25;;;;;;;2.83;2.37;;;;;;;;;;5033559;28;20467;-40
2021/10/20 05:49:50;;;;;;;2.70;2.50;;;;;;;;;;5039009;28;20034;-42
2021/10/20 05:52:16;;;;;;;2.70;2.50;;;;;;;;;;5033223;28;20057;-42
2021/10/20 05:54:41;;;;;;;2.57;2.37;;;;;;;;;;5033348;28;20026;-44
2021/10/20 05:57:06;;;;;;;2.83;2.60;;;;;;;;;;5034051;28;20032;-42
2021/10/20 05:59:32;;;;;;;2.40;2.20;;;;;;;;;;5033287;28;20033;-42
2021/10/20 06:01:57;;;;;;;2.63;2.20;;;;;;;;;;5033660;28;20021;-42
2021/10/20 06:04:22;;;;;;;2.70;2.50;;;;;;;;;;5034442;28;20499;-43
2021/10/20 06:06:48;;;;;;;2.90;2.53;;;;;;;;;;5044080;28;20044;-43
2021/10/20 06:09:13;;;;;;;2.57;2.37;;;;;;;;;;5032970;28;20074;-43
2021/10/20 06:11:39;;;;;;;2.50;2.30;;;;;;;;;;5047640;28;20028;-44
2021/10/20 06:14:04;;;;;;;2.30;2.13;;;;;;;;;;5053467;28;20115;-47
2021/10/20 06:16:32;;;;;;;2.60;2.40;;;;;;;;;;5053243;28;20012;-45
2021/10/20 06:18:57;;;;;;;2.80;2.42;;;;;;;;;;5052849;28;20032;-42
2021/10/20 06:21:23;;;;;;;2.40;2.20;;;;;;;;;;5052689;28;20029;-45
2021/10/20 06:23:48;;;;;;;3.13;2.30;;;;;;;;;;5020128;28;20025;-42
2021/10/20 06:26:13;;;;;;;3.50;2.57;;;;;;;;;;5032746;28;20025;-41
2021/10/20 06:28:39;;;;;;;2.97;2.40;;;;;;;;;;5032985;28;20453;-42
2021/10/20 06:31:04;;;;;;;3.77;2.70;;;;;;;;;;5032512;28;20053;-42
2021/10/20 06:33:29;;;;;;;2.47;2.27;;;;;;;;;;5032367;28;20140;-42
2021/10/20 06:35:55;;;;;;;2.53;2.33;;;;;;;;;;5036280;28;20036;-42
2021/10/20 06:38:21;;;;;;;2.50;2.30;;;;;;;;;;5046233;28;20033;-44
2021/10/20 06:40:46;;;;;;;2.53;2.23;;;;;;;;;;5035136;28;20287;-44
2021/10/20 06:43:11;;;;;;;2.57;2.37;;;;;;;;;;5037152;28;20670;-43
2021/10/20 06:45:37;;;;;;;2.77;2.10;;;;;;;;;;5050677;28;20495;-42
2021/10/20 06:48:03;;;;;;;2.20;2.00;;;;;;;;;;5051979;28;20091;-42
2021/10/20 06:50:28;;;;;;;2.60;2.40;;;;;;;;;;5051488;28;20031;-41
2021/10/20 06:52:53;;;;;;;2.70;2.50;;;;;;;;;;5047817;28;20029;-41
2021/10/20 06:55:19;;;;;;;2.30;2.10;;;;;;;;;;5052102;28;20496;-41
2021/10/20 06:57:44;;;;;;;3.27;2.53;;;;;;;;;;5033965;28;20096;-41
2021/10/20 07:00:11;;;;;;;2.60;2.40;;;;;;;;;;5051798;28;20025;-41
2021/10/20 07:02:36;;;;;;;3.60;2.40;;;;;;;;;;5039262;28;20036;-41
2021/10/20 07:05:02;;;;;;;3.77;2.47;;;;;;;;;;5041550;28;20024;-41
2021/10/20 07:07:30;;;;;;;4.17;2.73;;;;;;;;;;5048590;28;20479;-42
2021/10/20 07:09:56;;;;;;;3.97;2.83;;;;;;;;;;5039973;28;20112;-42
2021/10/20 07:12:22;;;;;;;2.90;2.50;;;;;;;;;;5030977;28;20024;-42
2021/10/20 07:14:48;;;;;;;2.90;2.60;;;;;;;;;;5038297;28;20104;-42
2021/10/20 07:17:13;;;;;;;2.60;2.40;;;;;;;;;;5040381;28;20013;-41
2021/10/20 07:19:38;;;;;;;3.53;2.30;;;;;;;;;;5036811;28;20031;-41
2021/10/20 07:22:07;;;;;;;3.77;2.50;;;;;;;;;;5032721;28;20024;-42
2021/10/20 07:24:33;;;;;;;2.78;2.50;;;;;;;;;;5041532;28;20022;-41
2021/10/20 07:26:59;;;;;;;2.80;2.60;;;;;;;;;;5042818;28;20023;-41
2021/10/20 07:29:24;;;;;;;2.63;2.43;;;;;;;;;;5041005;28;20259;-43
2021/10/20 07:31:49;;;;;;;4.10;2.83;;;;;;;;;;5036230;28;20037;-44
2021/10/20 07:34:15;;;;;;;2.63;2.40;;;;;;;;;;5039432;28;20029;-44
2021/10/20 07:36:42;;;;;;;2.60;2.40;;;;;;;;;;5031690;28;20155;-45
2021/10/20 07:39:07;;;;;;;;;;;;;;;;;;5038595;28;20052;-43
2021/10/20 07:41:32;;;;;;;5.07;2.57;;;;;;;;;;5028692;28;19917;-46
2021/10/20 07:43:58;;;;;;;2.87;2.53;;;;;;;;;;5035231;28;20468;-42
2021/10/20 07:46:24;;;;;;;3.42;2.60;;;;;;;;;;5051278;28;20515;-42
2021/10/20 07:48:49;;;;;;;2.63;2.43;;;;;;;;;;5024275;28;20076;-42
2021/10/20 07:51:14;;;;;;;4.00;2.47;;;;;;;;;;5034493;28;20036;-42
2021/10/20 07:53:40;;;;;;;2.90;2.70;;;;;;;;;;5036875;28;20023;-43
2021/10/20 07:56:05;;;;;;;3.30;2.67;;;;;;;;;;5038966;28;20027;-42
2021/10/20 07:58:31;;;;;;;2.90;2.60;;;;;;;;;;5038296;28;20152;-42
2021/10/20 08:00:56;;;;;;;3.30;2.33;;;;;;;;;;5025728;28;20051;-42
2021/10/20 08:03:22;;;;;;;2.60;2.37;;;;;;;;;;5040063;28;20075;-43
2021/10/20 08:05:47;;;;;;;4.63;3.20;;;;;;;;;;5043059;28;20060;-42
2021/10/20 08:08:13;;;;;;;3.97;2.57;;;;;;;;;;5021126;28;20506;-42
2021/10/20 08:10:40;;;;;;;3.63;2.73;;;;;;;;;;5004862;28;20033;-43
2021/10/20 08:13:05;;;;;;;4.93;2.58;;;;;;;;;;5024872;28;20068;-44
2021/10/20 08:15:31;;;;;;;5.87;3.07;;;;;;;;;;5046689;28;20414;-44
2021/10/20 08:18:00;;;;;;;4.93;2.90;;;;;;;;;;5042060;28;20009;-43
2021/10/20 08:20:30;;;;;;;4.25;2.90;;;;;;;;;;5034522;28;20056;-43
2021/10/20 08:22:56;;;;;;;4.70;2.92;;;;;;;;;;5029485;28;20369;-42
2021/10/20 08:25:21;;;;;;;5.40;2.93;;;;;;;;;;5014113;28;20084;-45
2021/10/20 08:27:46;;;;;;;3.80;2.90;;;;;;;;;;5025187;28;20025;-42
2021/10/20 08:30:17;;;;;;;3.90;2.93;;;;;;;;;;5030583;28;20483;-46
2021/10/20 08:32:43;;;;;;;3.60;2.95;;;;;;;;;;5030204;28;20158;-42
2021/10/20 08:35:08;;;;;;;4.40;3.10;;;;;;;;;;5044298;28;20049;-42
2021/10/20 08:37:34;;;;;;;5.13;3.13;;;;;;;;;;5050741;28;20345;-43
2021/10/20 08:39:59;;;;;;;4.13;2.80;;;;;;;;;;5044056;28;20182;-43
2021/10/20 08:42:25;;;;;;;4.10;3.03;;;;;;;;;;5040457;28;20071;-46
2021/10/20 08:44:50;;;;;;;3.37;3.07;;;;;;;;;;5037851;28;20020;-44
2021/10/20 08:47:16;;;;;;;4.70;3.00;;;;;;;;;;5026610;28;20025;-42
2021/10/20 08:49:42;;;;;;;5.53;3.08;;;;;;;;;;5034100;28;20815;-44
2021/10/20 08:52:09;;;;;;;4.40;2.67;;;;;;;;;;5035187;28;20443;-42
2021/10/20 08:54:34;;;;;;;4.32;2.83;;;;;;;;;;5042433;28;20034;-42
2021/10/20 08:57:00;;;;;;;3.47;3.13;;;;;;;;;;5036110;28;20029;-43
2021/10/20 08:59:25;;;;;;;3.30;3.00;;;;;;;;;;5042041;28;20534;-44
2021/10/20 09:01:50;;;;;;;5.00;3.43;;;;;;;;;;5024285;28;20044;-43
2021/10/20 09:04:20;;;;;;;6.20;3.50;;;;;;;;;;5044440;28;20025;-43
2021/10/20 09:06:45;;;;;;;3.85;3.28;;;;;;;;;;5048124;28;20048;-43
2021/10/20 09:09:10;;;;;;;4.97;2.97;;;;;;;;;;5039276;28;20483;-42
2021/10/20 09:11:37;;;;;;;4.60;3.10;;;;;;;;;;5027430;28;20025;-43
2021/10/20 09:14:07;;;;;;;4.85;3.25;;;;;;;;;;5034895;28;20488;-46
2021/10/20 09:16:34;;;;;;;7.05;3.40;;;;;;;;;;5047168;28;20021;-43
2021/10/20 09:19:10;;;;;;;4.32;3.40;;;;;;;;;;5051965;28;20070;-43
2021/10/20 09:21:45;;;;;;;4.85;3.60;;;;;;;;;;5029078;28;20032;-42
2021/10/20 09:24:11;;;;;;;4.75;3.22;;;;;;;;;;5030043;28;20395;-43
2021/10/20 09:26:36;;;;;;;5.00;3.67;;;;;;;;;;5049739;28;20021;-42
2021/10/20 09:29:01;;;;;;;5.27;3.13;;;;;;;;;;5049711;28;20131;-44
2021/10/20 09:31:27;;;;;;;4.77;3.30;;;;;;;;;;5030285;28;20399;-43
2021/10/20 09:33:52;;;;;;;5.37;3.20;;;;;;;;;;5052424;28;20028;-44
2021/10/20 09:36:20;;;;;;;5.93;3.40;;;;;;;;;;5034820;28;20045;-45
2021/10/20 09:38:48;;;;;;;3.88;3.00;;;;;;;;;;5033472;28;20039;-43
2021/10/20 09:41:13;;;;;;;4.95;3.30;;;;;;;;;;5029881;28;20029;-45
2021/10/20 09:43:40;;;;;;;5.07;3.10;;;;;;;;;;5036028;28;20112;-43
2021/10/20 09:46:05;;;;;;;4.20;3.55;;;;;;;;;;5016417;28;20108;-44
2021/10/20 09:48:31;;;;;;;5.20;2.93;;;;;;;;;;5044874;28;20168;-43
2021/10/20 09:50:58;;;;;;;3.93;3.20;;;;;;;;;;5023278;28;20033;-42
2021/10/20 09:53:30;;;;;;;3.78;3.33;;;;;;;;;;5041957;28;20025;-44
2021/10/20 09:55:58;;;;;;;3.50;2.80;;;;;;;;;;5052403;28;20035;-43
2021/10/20 09:58:25;;;;;;;3.50;2.72;;;;;;;;;;5035217;28;20036;-42
2021/10/20 10:00:52;;;;;;;6.63;3.00;;;;;;;;;;5029491;28;20153;-43
2021/10/20 10:03:19;;;;;;;5.30;2.70;;;;;;;;;;5032941;28;20036;-47
2021/10/20 10:05:44;;;;;;;4.13;3.13;;;;;;;;;;5032819;28;20439;-42
2021/10/20 10:08:09;;;;;;;3.27;2.73;;;;;;;;;;5047259;28;20047;-46
2021/10/20 10:10:36;;;;;;;3.90;2.73;;;;;;;;;;5040243;28;20479;-45
2021/10/20 10:13:07;;;;;;;4.43;3.20;;;;;;;;;;5047831;28;20047;-43
2021/10/20 10:15:35;;;;;;;4.13;3.17;;;;;;;;;;5044847;28;20113;-42
2021/10/20 10:18:03;;;;;;;5.65;2.90;;;;;;;;;;5032621;28;20028;-42
2021/10/20 10:20:29;;;;;;;4.00;2.67;;;;;;;;;;5028740;28;20522;-42
2021/10/20 10:22:59;;;;;;;5.00;2.92;;;;;;;;;;5047524;28;20025;-43
2021/10/20 10:25:39;;;;;;;3.75;2.90;;;;;;;;;;5045628;28;20037;-43
2021/10/20 10:28:08;;;;;;;4.53;2.83;;;;;;;;;;5032479;28;20429;-43
2021/10/20 10:31:11;;;;;;;3.78;2.88;;;;;;;;;;5027228;28;20029;-42
2021/10/20 10:33:49;;;;;;;4.43;3.10;;;;;;;;;;4939530;29;20123;-42
2021/10/20 10:36:19;;;;;;;5.35;2.63;;;;;;;;;;4950118;29;20231;-42
2021/10/20 10:39:04;;;;;;;3.97;2.75;;;;;;;;;;4948657;28;20090;-43
2021/10/20 10:41:30;;;;;;;5.05;2.83;;;;;;;;;;4932801;28;20509;-42
2021/10/20 10:44:06;;;;;;;3.57;2.90;;;;;;;;;;4951793;29;20065;-42
2021/10/20 10:46:31;;;;;;;;;;;;;;;;;;4950582;29;20066;-43
2021/10/20 10:48:57;;;;;;;2.97;2.40;;;;;;;;;;4950037;28;19954;-46
2021/10/20 10:51:22;;;;;;;4.20;2.83;;;;;;;;;;4933343;28;20142;-42
2021/10/20 10:53:52;;;;;;;4.07;2.93;;;;;;;;;;4932702;29;20474;-45
2021/10/20 10:56:17;;;;;;;3.22;2.88;;;;;;;;;;4943653;29;20275;-44
2021/10/20 10:58:51;;;;;;;3.20;2.37;;;;;;;;;;4951661;28;20518;-45
2021/10/20 11:01:36;;;;;;;3.42;2.83;;;;;;;;;;4931963;28;20058;-43
2021/10/20 11:04:17;;;;;;;3.17;2.75;;;;;;;;;;4979434;28;20057;-45
2021/10/20 11:06:43;;;;;;;3.72;2.70;;;;;;;;;;5014058;28;20381;-42
2021/10/20 11:09:08;;;;;;;2.97;2.50;;;;;;;;;;5031826;28;20104;-43
2021/10/20 11:11:33;;;;;;;3.13;2.83;;;;;;;;;;5017238;28;20029;-43
2021/10/20 11:14:02;;;;;;;4.77;2.67;;;;;;;;;;5031930;28;20029;-43
2021/10/20 11:16:27;;;;;;;3.25;2.60;;;;;;;;;;5031867;28;20021;-46
2021/10/20 11:18:53;;;;;;;2.63;2.33;;;;;;;;;;5013594;28;20034;-46
2021/10/20 11:21:19;;;;;;;4.78;2.60;;;;;;;;;;5011847;28;20033;-43
2021/10/20 11:23:45;;;;;;;2.80;2.60;;;;;;;;;;5049578;28;20056;-43
2021/10/20 11:26:10;;;;;;;3.10;2.60;;;;;;;;;;5031795;28;20068;-45
2021/10/20 11:28:36;;;;;;;3.97;2.53;;;;;;;;;;5031887;28;20029;-43
2021/10/20 11:31:05;;;;;;;2.77;2.53;;;;;;;;;;5027813;28;20495;-44
2021/10/20 11:33:30;;;;;;;3.88;2.40;;;;;;;;;;5043059;28;20028;-43
2021/10/20 11:35:56;;;;;;;3.07;2.77;;;;;;;;;;5031532;28;20034;-42
2021/10/20 11:38:21;;;;;;;4.73;3.03;;;;;;;;;;5030227;28;20044;-43
2021/10/20 11:40:50;;;;;;;6.00;2.30;;;;;;;;;;5032642;28;20165;-43
2021/10/20 11:43:18;;;;;;;3.58;2.50;;;;;;;;;;5032321;28;20104;-44
2021/10/20 11:45:43;;;;;;;2.60;2.40;;;;;;;;;;5031285;28;20167;-44
2021/10/20 11:48:18;;;;;;;3.20;2.80;;;;;;;;;;5031135;28;20116;-48
2021/10/20 11:50:47;;;;;;;3.92;2.60;;;;;;;;;;5031071;28;20077;-42
2021/10/20 11:53:14;;;;;;;3.47;2.72;;;;;;;;;;5031603;28;20025;-42
2021/10/20 11:55:43;;;;;;;3.60;2.85;;;;;;;;;;5031782;28;20030;-44
2021/10/20 11:58:15;;;;;;;2.60;2.40;;;;;;;;;;5046952;28;20699;-46
2021/10/20 12:00:41;;;;;;;4.10;2.63;;;;;;;;;;5029173;28;20030;-43
2021/10/20 12:03:08;;;;;;;2.80;2.50;;;;;;;;;;5028526;28;20037;-42
2021/10/20 12:05:33;;;;;;;3.08;2.60;;;;;;;;;;5030084;28;20373;-43
2021/10/20 12:07:59;;;;;;;4.03;2.77;;;;;;;;;;5028978;28;20025;-44
2021/10/20 12:10:25;;;;;;;3.88;2.90;;;;;;;;;;5031087;28;20121;-44
2021/10/20 12:12:50;;;;;;;3.40;2.60;;;;;;;;;;5030848;28;20112;-45
2021/10/20 12:15:17;;;;;;;4.97;2.93;;;;;;;;;;5031403;28;20067;-43
2021/10/20 12:17:44;;;;;;;3.03;2.80;;;;;;;;;;5049270;28;20025;-44
2021/10/20 12:20:09;;;;;;;;;;;;;;;;;;5033604;28;20033;-45
2021/10/20 12:22:39;;;;;;;3.90;3.10;;;;;;;;;;5030898;28;20027;-42
2021/10/20 12:25:05;;;;;;;3.83;3.10;;;;;;;;;;5016367;28;20028;-43
2021/10/20 12:27:30;;;;;;;3.13;2.53;;;;;;;;;;5044061;28;20084;-45
2021/10/20 12:29:59;;;;;;;3.70;2.80;;;;;;;;;;5044294;28;20494;-43
2021/10/20 12:32:24;;;;;;;3.85;2.72;;;;;;;;;;5038482;28;20051;-41
2021/10/20 12:34:54;;;;;;;4.07;3.13;;;;;;;;;;5054961;28;20526;-42
2021/10/20 12:37:19;;;;;;;3.97;3.00;;;;;;;;;;5037547;28;20045;-42
2021/10/20 12:39:49;;;;;;;4.23;2.87;;;;;;;;;;5047258;28;20056;-43
2021/10/20 12:42:15;;;;;;;2.90;2.70;;;;;;;;;;5053213;28;20025;-46
2021/10/20 12:44:40;;;;;;;2.90;2.60;;;;;;;;;;5054463;28;20056;-43
2021/10/20 12:47:05;;;;;;;3.10;2.73;;;;;;;;;;5038514;28;20108;-44
2021/10/20 12:49:35;;;;;;;3.10;2.80;;;;;;;;;;5016310;28;20046;-42
2021/10/20 12:52:00;;;;;;;5.63;3.40;;;;;;;;;;5023312;28;20124;-42
2021/10/20 12:54:29;;;;;;;4.97;3.10;;;;;;;;;;5034386;28;20108;-44
2021/10/20 12:56:54;;;;;;;2.63;2.42;;;;;;;;;;5037266;28;20021;-43
2021/10/20 12:59:20;;;;;;;3.90;2.60;;;;;;;;;;5042925;28;20048;-43
2021/10/20 13:01:45;;;;;;;3.60;2.73;;;;;;;;;;5052060;28;20426;-47
2021/10/20 13:04:11;;;;;;;4.37;2.73;;;;;;;;;;5029853;28;20510;-43
2021/10/20 13:06:37;;;;;;;3.63;2.80;;;;;;;;;;5034274;28;20029;-45
2021/10/20 13:09:03;;;;;;;4.03;2.90;;;;;;;;;;5033991;28;20493;-43
2021/10/20 13:11:28;;;;;;;3.45;2.80;;;;;;;;;;5034001;28;20025;-43
2021/10/20 13:13:54;;;;;;;3.50;2.27;;;;;;;;;;5033303;28;20017;-42
2021/10/20 13:16:19;;;;;;;4.10;2.60;;;;;;;;;;5053435;28;20071;-43
2021/10/20 13:18:44;;;;;;;3.13;2.80;;;;;;;;;;5052924;28;20115;-46
2021/10/20 13:21:10;;;;;;;3.27;2.57;;;;;;;;;;5035988;28;20102;-43
2021/10/20 13:23:36;;;;;;;3.73;2.60;;;;;;;;;;5053669;28;20028;-44
2021/10/20 13:26:03;;;;;;;3.90;2.90;;;;;;;;;;5041257;28;20047;-46
2021/10/20 13:28:28;;;;;;;;;;;;;;;;;;5054019;28;20024;-42
2021/10/20 13:30:53;;;;;;;2.80;2.47;;;;;;;;;;5055005;28;19909;-43
2021/10/20 13:33:19;;;;;;;4.17;2.63;;;;;;;;;;5053419;28;20032;-43
2021/10/20 13:35:44;;;;;;;3.80;2.57;;;;;;;;;;5051339;28;20480;-44
2021/10/20 13:38:10;;;;;;;2.67;2.47;;;;;;;;;;5043649;28;20116;-43
2021/10/20 13:40:36;;;;;;;2.70;2.45;;;;;;;;;;5025600;28;20033;-42
2021/10/20 13:43:02;;;;;;;2.58;2.38;;;;;;;;;;5043918;28;20033;-42
2021/10/20 13:45:27;;;;;;;4.20;2.70;;;;;;;;;;5040743;28;20207;-42
2021/10/20 13:47:53;;;;;;;2.80;2.50;;;;;;;;;;5045886;28;20399;-41
2021/10/20 13:50:18;;;;;;;3.23;2.43;;;;;;;;;;5034665;28;20036;-42
2021/10/20 13:52:44;;;;;;;2.90;2.60;;;;;;;;;;5049093;28;20029;-44
2021/10/20 13:55:09;;;;;;;4.30;2.70;;;;;;;;;;5053112;28;20032;-42
2021/10/20 13:57:34;;;;;;;3.73;3.30;;;;;;;;;;5053094;28;20383;-43
2021/10/20 14:00:01;;;;;;;3.10;2.43;;;;;;;;;;5019960;28;20045;-42
2021/10/20 14:02:26;;;;;;;;;;;;;;;;;;5052601;28;20442;-42
2021/10/20 14:04:54;;;;;;;2.65;2.45;;;;;;;;;;5033276;28;19908;-42
2021/10/20 14:07:20;;;;;;;3.65;3.00;;;;;;;;;;5032907;28;20403;-42
2021/10/20 14:09:45;;;;;;;3.80;2.80;;;;;;;;;;5033272;28;20116;-42
2021/10/20 14:12:10;;;;;;;3.37;2.40;;;;;;;;;;5052813;28;20108;-42
2021/10/20 14:14:36;;;;;;;3.57;2.40;;;;;;;;;;5022389;28;20029;-42
2021/10/20 14:17:02;;;;;;;2.93;2.57;;;;;;;;;;5047895;28;20031;-43
2021/10/20 14:19:27;;;;;;;2.85;2.38;;;;;;;;;;5044910;28;20033;-43
2021/10/20 14:21:53;;;;;;;2.80;2.50;;;;;;;;;;5014028;28;20029;-42
2021/10/20 14:24:18;;;;;;;3.00;2.30;;;;;;;;;;5032631;28;20036;-43
2021/10/20 14:26:43;;;;;;;3.97;2.73;;;;;;;;;;5014719;28;20033;-42
2021/10/20 14:29:09;;;;;;;3.63;2.40;;;;;;;;;;5043441;28;20037;-43
2021/10/20 14:31:38;;;;;;;4.97;2.60;;;;;;;;;;5034498;28;20052;-42
2021/10/20 14:34:04;;;;;;;2.75;2.40;;;;;;;;;;5038351;28;20032;-43
2021/10/20 14:36:30;;;;;;;3.03;2.75;;;;;;;;;;5032571;28;20053;-42
2021/10/20 14:38:55;;;;;;;2.83;2.37;;;;;;;;;;5050813;28;20024;-42